CheckWX is a tool to help pilots better visualize weather data.  It is not intended as a substitute for an official pre-flight weather briefing.

07:36:32 UTC

HETR TAF
El Tor Airport
Egypt
TAF HETR 170500Z 1706/1812 33008G20KT CAVOK

Jun-17@
06:00 UTC

Jun-17 @ 06:00 UTC

Jun-18@
12:00 UTC

Jun-18 @ 12:00 UTC

TAF HETR 170500Z 1706/1812 33008G20KT CAVOK
Wind
  • 330° at 8 KTS
  • {Gusting to 20 KTS
Conditions
No significant weather
Cloud Levels
  • No significant clouds